EDT,Max TemperatureF,Mean TemperatureF,Min TemperatureF,Max Dew PointF,MeanDew PointF,Min DewpointF,Max Humidity, Mean Humidity, Min Humidity, Max Sea Level PressureIn, Mean Sea Level PressureIn, Min Sea Level PressureIn, Max VisibilityMiles, Mean VisibilityMiles, Min VisibilityMiles, Max Wind SpeedMPH, Mean Wind SpeedMPH, Max Gust SpeedMPH,PrecipitationIn, CloudCover, Events, WindDirDegrees
2014-4-1,77,57,37,48,39,33,91,59,26,30.18,30.12,30.05,10,10,1,12,2,18,0.00,2,,253
2014-4-2,80,58,35,44,38,32,91,55,18,30.17,30.11,30.04,10,10,10,13,2,18,0.00,1,,247
2014-4-3,77,64,50,58,51,43,87,67,44,30.11,30.03,29.95,10,10,10,17,3,25,0.00,2,Rain,263
2014-4-4,66,57,48,59,53,48,99,87,61,29.97,29.92,29.87,10,9,1,20,3,28,0.05,6,Rain,237
2014-4-5,65,52,38,53,38,24,96,64,26,30.07,30.02,29.96,10,10,10,10,3,18,0.00,1,,319
2014-4-6,63,50,37,49,39,34,98,71,35,30.10,30.02,29.95,10,10,7,9,2,,0.10,3,Rain,228
2014-4-7,60,54,47,54,51,47,100,90,75,29.97,29.78,29.65,10,8,2,16,4,23,2.29,8,Rain,254
2014-4-8,54,48,41,45,38,34,90,67,47,29.82,29.76,29.72,10,10,10,14,6,22,0.00,7,,30
2014-4-9,61,50,38,44,37,31,93,66,33,30.17,30.00,29.82,10,10,10,13,3,22,0.00,5,,2
2014-4-10,72,52,31,40,35,30,99,62,27,30.28,30.20,30.13,10,10,7,15,2,22,0.00,0,,247
2014-4-11,73,54,35,46,39,32,97,63,23,30.27,30.19,30.10,10,10,10,20,2,25,0.00,0,,259
2014-4-12,80,61,42,52,47,42,97,64,33,30.25,30.17,30.08,10,10,7,13,2,20,0.00,2,,236
2014-4-13,79,62,45,55,51,44,99,66,39,30.19,30.11,30.01,10,10,5,17,3,24,0.00,4,,222
2014-4-14,68,63,58,58,55,52,97,76,55,30.01,29.93,29.82,10,10,5,16,6,26,0.23,7,Rain,239
2014-4-15,59,47,34,58,40,23,99,81,62,30.09,29.88,29.68,10,9,2,20,4,34,0.33,8,Rain,33
2014-4-16,63,44,26,30,25,18,89,53,18,30.31,30.21,30.11,10,10,10,13,5,18,0.00,0,,36
2014-4-17,66,47,28,39,30,23,94,59,19,30.41,30.36,30.28,10,10,10,13,2,17,0.00,1,,235
2014-4-18,59,50,41,49,41,35,92,73,45,30.35,30.27,30.17,10,10,10,7,1,,0.02,4,Rain,49
2014-4-19,63,55,47,51,47,42,99,81,48,30.20,30.14,30.09,10,10,7,14,2,17,0.08,8,Rain,45
2014-4-20,77,57,37,49,43,37,100,66,27,30.26,30.19,30.11,10,9,2,13,1,17,0.01,0,,261
2014-4-21,77,58,38,48,43,36,99,65,29,30.20,30.11,29.98,10,10,5,13,1,17,0.00,0,,250
2014-4-22,65,55,45,60,52,44,99,90,77,29.99,29.91,29.83,10,8,1,6,0,,0.18,6,Rain,60
2014-4-23,72,56,41,52,35,17,100,57,13,30.01,29.94,29.88,10,7,0,13,3,21,0.00,2,Fog,50
2014-4-24,76,55,34,44,36,32,93,54,20,30.08,30.00,29.92,10,10,7,12,2,18,0.00,1,,227
2014-4-25,71,60,47,57,50,45,92,66,46,30.01,29.89,29.83,10,10,10,20,5,25,0.01,5,Rain,270
2014-4-26,81,60,39,49,42,33,100,63,18,30.08,30.01,29.96,10,9,2,12,2,17,0.00,0,,261
2014-4-27,84,64,43,61,50,42,97,69,28,30.06,30.00,29.90,10,10,7,13,2,20,0.04,2,Rain,246
2014-4-28,78,66,55,63,59,56,100,77,50,29.99,29.89,29.78,10,8,0,15,4,24,0.00,6,Fog-Rain,234
2014-4-29,77,68,60,63,60,56,99,74,53,29.92,29.83,29.75,10,9,2,22,8,40,0.93,6,Rain,226
2014-4-30,72,64,57,62,58,54,99,78,55,29.95,29.89,29.85,10,9,2,20,7,31,0.20,7,Rain,228